sensor_id;sensor_type;location;lat;lon;timestamp;P1;durP1;ratioP1;P2;durP2;ratioP2
15183;SDS011;7693;49.266;7.104;2023-09-19T05:03:49;7.18;;;3.30;;
15183;SDS011;7693;49.266;7.104;2023-09-19T05:06:21;3.77;;;3.20;;
15183;SDS011;7693;49.266;7.104;2023-09-19T05:08:50;2.97;;;2.55;;
15183;SDS011;7693;49.266;7.104;2023-09-19T05:11:20;4.53;;;2.85;;
15183;SDS011;7693;49.266;7.104;2023-09-19T05:13:49;3.72;;;2.75;;
15183;SDS011;7693;49.266;7.104;2023-09-19T05:16:15;6.38;;;2.80;;
15183;SDS011;7693;49.266;7.104;2023-09-19T05:18:41;4.15;;;2.83;;
15183;SDS011;7693;49.266;7.104;2023-09-19T05:21:07;5.85;;;2.80;;
15183;SDS011;7693;49.266;7.104;2023-09-19T05:23:33;7.55;;;2.78;;
15183;SDS011;7693;49.266;7.104;2023-09-19T05:25:58;5.72;;;2.85;;
15183;SDS011;7693;49.266;7.104;2023-09-19T05:28:25;6.72;;;2.88;;
15183;SDS011;7693;49.266;7.104;2023-09-19T05:30:51;6.57;;;3.00;;
15183;SDS011;7693;49.266;7.104;2023-09-19T05:33:18;7.22;;;3.00;;
15183;SDS011;7693;49.266;7.104;2023-09-19T05:35:43;6.90;;;2.65;;
15183;SDS011;7693;49.266;7.104;2023-09-19T05:38:11;3.17;;;2.35;;
15183;SDS011;7693;49.266;7.104;2023-09-19T05:40:38;3.70;;;2.42;;
15183;SDS011;7693;49.266;7.104;2023-09-19T05:43:07;6.45;;;2.47;;
15183;SDS011;7693;49.266;7.104;2023-09-19T05:45:33;4.63;;;2.85;;
15183;SDS011;7693;49.266;7.104;2023-09-19T05:48:06;4.80;;;3.08;;
15183;SDS011;7693;49.266;7.104;2023-09-19T05:50:37;2.90;;;2.65;;
15183;SDS011;7693;49.266;7.104;2023-09-19T05:53:03;4.22;;;2.47;;
15183;SDS011;7693;49.266;7.104;2023-09-19T05:55:29;7.88;;;2.78;;
15183;SDS011;7693;49.266;7.104;2023-09-19T05:57:55;7.10;;;3.28;;
15183;SDS011;7693;49.266;7.104;2023-09-19T06:00:21;2.88;;;2.67;;
15183;SDS011;7693;49.266;7.104;2023-09-19T06:02:51;6.35;;;2.33;;
15183;SDS011;7693;49.266;7.104;2023-09-19T06:05:17;4.10;;;2.65;;
15183;SDS011;7693;49.266;7.104;2023-09-19T06:07:43;5.18;;;2.90;;
15183;SDS011;7693;49.266;7.104;2023-09-19T06:10:09;2.90;;;2.35;;
15183;SDS011;7693;49.266;7.104;2023-09-19T06:12:41;4.35;;;2.50;;
15183;SDS011;7693;49.266;7.104;2023-09-19T06:15:12;4.35;;;2.33;;
15183;SDS011;7693;49.266;7.104;2023-09-19T06:17:46;2.70;;;2.13;;
15183;SDS011;7693;49.266;7.104;2023-09-19T06:20:13;7.55;;;2.78;;
15183;SDS011;7693;49.266;7.104;2023-09-19T06:22:44;6.55;;;3.00;;
15183;SDS011;7693;49.266;7.104;2023-09-19T06:25:10;3.78;;;2.50;;
15183;SDS011;7693;49.266;7.104;2023-09-19T06:27:40;6.68;;;2.47;;
15183;SDS011;7693;49.266;7.104;2023-09-19T06:30:09;4.13;;;2.42;;
15183;SDS011;7693;49.266;7.104;2023-09-19T06:32:36;3.85;;;2.47;;
15183;SDS011;7693;49.266;7.104;2023-09-19T06:35:02;5.43;;;2.60;;
15183;SDS011;7693;49.266;7.104;2023-09-19T06:37:28;5.50;;;2.95;;
15183;SDS011;7693;49.266;7.104;2023-09-19T06:39:54;4.03;;;2.35;;
15183;SDS011;7693;49.266;7.104;2023-09-19T06:42:20;5.50;;;2.58;;
15183;SDS011;7693;49.266;7.104;2023-09-19T06:44:47;6.20;;;2.35;;
15183;SDS011;7693;49.266;7.104;2023-09-19T06:47:13;4.63;;;2.58;;
15183;SDS011;7693;49.266;7.104;2023-09-19T06:49:41;3.75;;;2.45;;
15183;SDS011;7693;49.266;7.104;2023-09-19T06:52:09;4.95;;;2.83;;
15183;SDS011;7693;49.266;7.104;2023-09-19T06:54:35;6.97;;;2.85;;
15183;SDS011;7693;49.266;7.104;2023-09-19T06:57:01;3.92;;;2.33;;
15183;SDS011;7693;49.266;7.104;2023-09-19T06:59:26;5.93;;;2.30;;
15183;SDS011;7693;49.266;7.104;2023-09-19T07:01:52;5.07;;;2.90;;
15183;SDS011;7693;49.266;7.104;2023-09-19T07:04:18;4.00;;;2.65;;
15183;SDS011;7693;49.266;7.104;2023-09-19T07:06:44;4.63;;;2.65;;
15183;SDS011;7693;49.266;7.104;2023-09-19T07:09:16;5.40;;;2.88;;
15183;SDS011;7693;49.266;7.104;2023-09-19T07:11:42;4.50;;;2.65;;
15183;SDS011;7693;49.266;7.104;2023-09-19T07:14:08;5.15;;;2.63;;
15183;SDS011;7693;49.266;7.104;2023-09-19T07:16:36;7.30;;;2.90;;
15183;SDS011;7693;49.266;7.104;2023-09-19T07:19:04;4.07;;;2.40;;
15183;SDS011;7693;49.266;7.104;2023-09-19T07:21:30;4.70;;;2.50;;
15183;SDS011;7693;49.266;7.104;2023-09-19T07:23:55;4.30;;;2.40;;
15183;SDS011;7693;49.266;7.104;2023-09-19T07:26:21;6.25;;;2.70;;
15183;SDS011;7693;49.266;7.104;2023-09-19T07:28:47;3.67;;;2.22;;
15183;SDS011;7693;49.266;7.104;2023-09-19T07:31:12;4.32;;;2.35;;
15183;SDS011;7693;49.266;7.104;2023-09-19T07:33:39;4.03;;;2.60;;
15183;SDS011;7693;49.266;7.104;2023-09-19T07:36:05;7.32;;;2.90;;
15183;SDS011;7693;49.266;7.104;2023-09-19T07:38:31;6.38;;;2.60;;
15183;SDS011;7693;49.266;7.104;2023-09-19T07:41:00;8.50;;;2.67;;
15183;SDS011;7693;49.266;7.104;2023-09-19T07:43:27;7.28;;;2.65;;
15183;SDS011;7693;49.266;7.104;2023-09-19T07:45:53;5.40;;;2.78;;
15183;SDS011;7693;49.266;7.104;2023-09-19T07:48:18;7.53;;;2.63;;
15183;SDS011;7693;49.266;7.104;2023-09-19T07:50:44;7.00;;;2.60;;
15183;SDS011;7693;49.266;7.104;2023-09-19T07:53:10;5.25;;;2.83;;
15183;SDS011;7693;49.266;7.104;2023-09-19T07:55:38;3.50;;;2.42;;
15183;SDS011;7693;49.266;7.104;2023-09-19T07:58:06;5.80;;;2.85;;
15183;SDS011;7693;49.266;7.104;2023-09-19T08:00:32;6.90;;;2.40;;
15183;SDS011;7693;49.266;7.104;2023-09-19T08:02:59;7.93;;;2.67;;
15183;SDS011;7693;49.266;7.104;2023-09-19T08:05:26;6.85;;;2.25;;
15183;SDS011;7693;49.266;7.104;2023-09-19T08:07:52;7.45;;;2.53;;
15183;SDS011;7693;49.266;7.104;2023-09-19T08:10:19;7.60;;;2.88;;
15183;SDS011;7693;49.266;7.104;2023-09-19T08:12:46;7.13;;;2.50;;
15183;SDS011;7693;49.266;7.104;2023-09-19T08:15:13;5.47;;;2.80;;
15183;SDS011;7693;49.266;7.104;2023-09-19T08:17:40;12.20;;;2.90;;
15183;SDS011;7693;49.266;7.104;2023-09-19T08:20:06;7.18;;;3.00;;
15183;SDS011;7693;49.266;7.104;2023-09-19T08:22:32;8.65;;;3.72;;
15183;SDS011;7693;49.266;7.104;2023-09-19T08:24:58;7.55;;;2.50;;
15183;SDS011;7693;49.266;7.104;2023-09-19T08:27:24;6.30;;;2.92;;
15183;SDS011;7693;49.266;7.104;2023-09-19T08:29:52;5.53;;;2.40;;
15183;SDS011;7693;49.266;7.104;2023-09-19T08:32:18;8.02;;;3.05;;
15183;SDS011;7693;49.266;7.104;2023-09-19T08:34:49;9.50;;;2.60;;
15183;SDS011;7693;49.266;7.104;2023-09-19T08:37:15;7.85;;;2.90;;
15183;SDS011;7693;49.266;7.104;2023-09-19T08:39:43;6.38;;;2.80;;
15183;SDS011;7693;49.266;7.104;2023-09-19T08:42:09;7.35;;;3.28;;
15183;SDS011;7693;49.266;7.104;2023-09-19T08:44:36;6.22;;;2.60;;
15183;SDS011;7693;49.266;7.104;2023-09-19T08:47:14;5.35;;;2.70;;
15183;SDS011;7693;49.266;7.104;2023-09-19T08:50:00;6.65;;;2.45;;
15183;SDS011;7693;49.266;7.104;2023-09-19T08:52:32;8.18;;;2.05;;
15183;SDS011;7693;49.266;7.104;2023-09-19T08:55:04;5.43;;;2.80;;
15183;SDS011;7693;49.266;7.104;2023-09-19T08:57:35;5.38;;;2.83;;
15183;SDS011;7693;49.266;7.104;2023-09-19T09:00:04;8.45;;;2.97;;
15183;SDS011;7693;49.266;7.104;2023-09-19T09:02:35;5.50;;;2.25;;
15183;SDS011;7693;49.266;7.104;2023-09-19T09:05:06;4.30;;;2.13;;
15183;SDS011;7693;49.266;7.104;2023-09-19T09:07:39;4.95;;;2.40;;
15183;SDS011;7693;49.266;7.104;2023-09-19T09:10:06;2.50;;;2.10;;
15183;SDS011;7693;49.266;7.104;2023-09-19T09:12:32;6.22;;;2.30;;
15183;SDS011;7693;49.266;7.104;2023-09-19T09:15:01;3.30;;;2.20;;
15183;SDS011;7693;49.266;7.104;2023-09-19T09:17:29;4.53;;;2.50;;
15183;SDS011;7693;49.266;7.104;2023-09-19T09:19:55;7.78;;;2.38;;
15183;SDS011;7693;49.266;7.104;2023-09-19T09:22:20;4.28;;;2.30;;
15183;SDS011;7693;49.266;7.104;2023-09-19T09:27:19;6.22;;;2.47;;
15183;SDS011;7693;49.266;7.104;2023-09-19T09:29:45;5.72;;;2.38;;
15183;SDS011;7693;49.266;7.104;2023-09-19T09:32:24;6.00;;;2.50;;
15183;SDS011;7693;49.266;7.104;2023-09-19T09:34:57;5.28;;;2.50;;
15183;SDS011;7693;49.266;7.104;2023-09-19T09:37:24;9.82;;;2.67;;
15183;SDS011;7693;49.266;7.104;2023-09-19T09:39:58;2.92;;;2.20;;
15183;SDS011;7693;49.266;7.104;2023-09-19T09:42:43;4.75;;;2.35;;
15183;SDS011;7693;49.266;7.104;2023-09-19T09:47:59;3.67;;;2.10;;
15183;SDS011;7693;49.266;7.104;2023-09-19T09:50:35;4.93;;;2.05;;
15183;SDS011;7693;49.266;7.104;2023-09-19T09:53:19;3.50;;;2.15;;
15183;SDS011;7693;49.266;7.104;2023-09-19T09:56:05;4.60;;;2.38;;
15183;SDS011;7693;49.266;7.104;2023-09-19T09:58:35;3.83;;;2.00;;
15183;SDS011;7693;49.266;7.104;2023-09-19T12:21:39;3.67;;;2.10;;
15183;SDS011;7693;49.266;7.104;2023-09-19T12:24:06;3.55;;;1.50;;
15183;SDS011;7693;49.266;7.104;2023-09-19T12:26:42;2.13;;;1.70;;
15183;SDS011;7693;49.266;7.104;2023-09-19T12:29:13;1.90;;;1.70;;
15183;SDS011;7693;49.266;7.104;2023-09-19T12:34:25;2.75;;;1.52;;
15183;SDS011;7693;49.266;7.104;2023-09-19T12:37:08;1.42;;;1.30;;
15183;SDS011;7693;49.266;7.104;2023-09-19T12:39:46;3.53;;;1.40;;
15183;SDS011;7693;49.266;7.104;2023-09-19T12:42:14;1.55;;;1.45;;
15183;SDS011;7693;49.266;7.104;2023-09-19T12:44:45;2.45;;;1.70;;
15183;SDS011;7693;49.266;7.104;2023-09-19T12:47:14;2.53;;;1.65;;
15183;SDS011;7693;49.266;7.104;2023-09-19T12:52:39;1.48;;;1.38;;
15183;SDS011;7693;49.266;7.104;2023-09-19T12:55:06;2.63;;;1.67;;
15183;SDS011;7693;49.266;7.104;2023-09-19T12:57:34;1.90;;;1.80;;
15183;SDS011;7693;49.266;7.104;2023-09-19T13:00:03;4.40;;;1.83;;
15183;SDS011;7693;49.266;7.104;2023-09-19T13:02:36;1.65;;;1.55;;
15183;SDS011;7693;49.266;7.104;2023-09-19T13:05:03;1.60;;;1.50;;
15183;SDS011;7693;49.266;7.104;2023-09-19T13:07:41;1.45;;;1.35;;
15183;SDS011;7693;49.266;7.104;2023-09-19T13:10:12;1.77;;;1.20;;
15183;SDS011;7693;49.266;7.104;2023-09-19T13:12:41;3.08;;;1.48;;
15183;SDS011;7693;49.266;7.104;2023-09-19T13:15:12;1.52;;;1.33;;
15183;SDS011;7693;49.266;7.104;2023-09-19T13:17:43;1.65;;;1.50;;
15183;SDS011;7693;49.266;7.104;2023-09-19T13:20:23;2.35;;;1.58;;
15183;SDS011;7693;49.266;7.104;2023-09-19T13:22:52;1.83;;;1.40;;
15183;SDS011;7693;49.266;7.104;2023-09-19T13:25:19;2.72;;;1.65;;
15183;SDS011;7693;49.266;7.104;2023-09-19T13:27:47;1.70;;;1.60;;
15183;SDS011;7693;49.266;7.104;2023-09-19T13:30:16;1.27;;;1.27;;
15183;SDS011;7693;49.266;7.104;2023-09-19T13:32:43;2.72;;;1.77;;
15183;SDS011;7693;49.266;7.104;2023-09-19T13:35:09;4.28;;;1.33;;
15183;SDS011;7693;49.266;7.104;2023-09-19T13:37:35;1.40;;;1.30;;
15183;SDS011;7693;49.266;7.104;2023-09-19T13:40:06;2.35;;;1.45;;
15183;SDS011;7693;49.266;7.104;2023-09-19T13:42:33;1.60;;;1.40;;
15183;SDS011;7693;49.266;7.104;2023-09-19T13:44:58;2.05;;;1.58;;
15183;SDS011;7693;49.266;7.104;2023-09-19T13:47:24;1.58;;;1.48;;
15183;SDS011;7693;49.266;7.104;2023-09-19T13:49:51;3.63;;;1.80;;
15183;SDS011;7693;49.266;7.104;2023-09-19T13:52:18;5.78;;;1.40;;
15183;SDS011;7693;49.266;7.104;2023-09-19T13:54:44;1.80;;;1.20;;
15183;SDS011;7693;49.266;7.104;2023-09-19T13:57:10;1.50;;;1.40;;
15183;SDS011;7693;49.266;7.104;2023-09-19T13:59:35;1.83;;;1.40;;
15183;SDS011;7693;49.266;7.104;2023-09-19T14:02:01;1.73;;;1.40;;
15183;SDS011;7693;49.266;7.104;2023-09-19T14:04:30;1.48;;;1.38;;
15183;SDS011;7693;49.266;7.104;2023-09-19T14:06:56;1.95;;;1.70;;
15183;SDS011;7693;49.266;7.104;2023-09-19T14:09:23;1.40;;;1.40;;
15183;SDS011;7693;49.266;7.104;2023-09-19T14:11:49;2.38;;;1.60;;
15183;SDS011;7693;49.266;7.104;2023-09-19T14:14:17;2.08;;;1.40;;
15183;SDS011;7693;49.266;7.104;2023-09-19T14:16:49;1.63;;;1.48;;
15183;SDS011;7693;49.266;7.104;2023-09-19T14:19:14;1.25;;;1.23;;
15183;SDS011;7693;49.266;7.104;2023-09-19T14:21:41;1.48;;;1.38;;
15183;SDS011;7693;49.266;7.104;2023-09-19T14:24:07;2.28;;;1.40;;
15183;SDS011;7693;49.266;7.104;2023-09-19T14:26:40;1.20;;;1.20;;
15183;SDS011;7693;49.266;7.104;2023-09-19T14:29:06;1.30;;;1.20;;
15183;SDS011;7693;49.266;7.104;2023-09-19T14:31:32;1.73;;;1.45;;
15183;SDS011;7693;49.266;7.104;2023-09-19T14:33:59;2.17;;;1.23;;
15183;SDS011;7693;49.266;7.104;2023-09-19T14:36:24;1.30;;;1.30;;
15183;SDS011;7693;49.266;7.104;2023-09-19T14:38:55;1.40;;;1.30;;
15183;SDS011;7693;49.266;7.104;2023-09-19T14:41:22;1.67;;;1.27;;
15183;SDS011;7693;49.266;7.104;2023-09-19T14:43:50;1.40;;;1.30;;
15183;SDS011;7693;49.266;7.104;2023-09-19T14:46:16;1.30;;;1.20;;
15183;SDS011;7693;49.266;7.104;2023-09-19T14:48:44;1.10;;;1.10;;
15183;SDS011;7693;49.266;7.104;2023-09-19T14:51:13;1.25;;;1.23;;
15183;SDS011;7693;49.266;7.104;2023-09-19T14:53:39;2.05;;;1.20;;
15183;SDS011;7693;49.266;7.104;2023-09-19T14:56:09;2.28;;;1.23;;
15183;SDS011;7693;49.266;7.104;2023-09-19T14:58:35;2.28;;;1.45;;
15183;SDS011;7693;49.266;7.104;2023-09-19T15:01:07;2.10;;;1.27;;
15183;SDS011;7693;49.266;7.104;2023-09-19T15:03:35;1.52;;;1.30;;
15183;SDS011;7693;49.266;7.104;2023-09-19T15:06:04;2.03;;;1.60;;
15183;SDS011;7693;49.266;7.104;2023-09-19T15:08:32;1.48;;;1.30;;
15183;SDS011;7693;49.266;7.104;2023-09-19T15:10:59;1.48;;;1.38;;
15183;SDS011;7693;49.266;7.104;2023-09-19T15:13:32;5.60;;;1.70;;
15183;SDS011;7693;49.266;7.104;2023-09-19T15:16:02;2.42;;;1.90;;
15183;SDS011;7693;49.266;7.104;2023-09-19T15:18:29;0.93;;;0.93;;
15183;SDS011;7693;49.266;7.104;2023-09-19T15:20:55;1.50;;;1.40;;
15183;SDS011;7693;49.266;7.104;2023-09-19T15:23:31;2.00;;;1.35;;
15183;SDS011;7693;49.266;7.104;2023-09-19T15:25:59;1.70;;;1.60;;
15183;SDS011;7693;49.266;7.104;2023-09-19T15:28:26;1.30;;;1.27;;
15183;SDS011;7693;49.266;7.104;2023-09-19T15:31:00;1.77;;;1.30;;
15183;SDS011;7693;49.266;7.104;2023-09-19T15:33:31;13.52;;;9.15;;
15183;SDS011;7693;49.266;7.104;2023-09-19T15:38:31;1.50;;;1.50;;
15183;SDS011;7693;49.266;7.104;2023-09-19T15:41:18;2.33;;;2.10;;
15183;SDS011;7693;49.266;7.104;2023-09-19T15:43:45;1.60;;;1.50;;
15183;SDS011;7693;49.266;7.104;2023-09-19T15:46:11;2.10;;;1.70;;
15183;SDS011;7693;49.266;7.104;2023-09-19T15:48:36;1.50;;;1.40;;
15183;SDS011;7693;49.266;7.104;2023-09-19T15:51:03;2.40;;;2.20;;
15183;SDS011;7693;49.266;7.104;2023-09-19T15:53:31;2.42;;;1.67;;
15183;SDS011;7693;49.266;7.104;2023-09-19T15:56:10;1.25;;;1.25;;
15183;SDS011;7693;49.266;7.104;2023-09-19T15:58:37;1.60;;;1.50;;
15183;SDS011;7693;49.266;7.104;2023-09-19T16:01:07;1.95;;;1.27;;
15183;SDS011;7693;49.266;7.104;2023-09-19T16:03:34;1.27;;;1.25;;
15183;SDS011;7693;49.266;7.104;2023-09-19T16:06:01;3.75;;;1.40;;
15183;SDS011;7693;49.266;7.104;2023-09-19T16:08:32;4.15;;;1.33;;
15183;SDS011;7693;49.266;7.104;2023-09-19T16:10:59;1.38;;;1.27;;
15183;SDS011;7693;49.266;7.104;2023-09-19T16:13:24;3.90;;;1.27;;
15183;SDS011;7693;49.266;7.104;2023-09-19T16:15:50;3.58;;;1.20;;
15183;SDS011;7693;49.266;7.104;2023-09-19T16:18:17;1.38;;;1.00;;
15183;SDS011;7693;49.266;7.104;2023-09-19T16:20:43;2.35;;;1.40;;
15183;SDS011;7693;49.266;7.104;2023-09-19T16:23:08;1.33;;;1.23;;
15183;SDS011;7693;49.266;7.104;2023-09-19T16:25:34;1.10;;;1.10;;
15183;SDS011;7693;49.266;7.104;2023-09-19T16:27:59;1.10;;;1.10;;
15183;SDS011;7693;49.266;7.104;2023-09-19T16:30:25;3.10;;;2.75;;
15183;SDS011;7693;49.266;7.104;2023-09-19T16:32:50;2.10;;;1.98;;
15183;SDS011;7693;49.266;7.104;2023-09-19T16:35:16;2.30;;;1.30;;
15183;SDS011;7693;49.266;7.104;2023-09-19T16:37:41;3.10;;;1.23;;
15183;SDS011;7693;49.266;7.104;2023-09-19T16:40:07;1.10;;;1.10;;
15183;SDS011;7693;49.266;7.104;2023-09-19T16:42:33;0.98;;;0.98;;
15183;SDS011;7693;49.266;7.104;2023-09-19T16:44:59;1.17;;;1.17;;
15183;SDS011;7693;49.266;7.104;2023-09-19T16:47:24;1.52;;;1.05;;
15183;SDS011;7693;49.266;7.104;2023-09-19T16:49:50;1.90;;;1.30;;
15183;SDS011;7693;49.266;7.104;2023-09-19T16:52:17;1.40;;;1.33;;
15183;SDS011;7693;49.266;7.104;2023-09-19T16:54:43;1.45;;;1.42;;
15183;SDS011;7693;49.266;7.104;2023-09-19T16:57:09;2.40;;;1.40;;
15183;SDS011;7693;49.266;7.104;2023-09-19T16:59:34;1.95;;;1.40;;
15183;SDS011;7693;49.266;7.104;2023-09-19T17:02:00;1.77;;;1.20;;
15183;SDS011;7693;49.266;7.104;2023-09-19T17:04:25;1.92;;;1.60;;
15183;SDS011;7693;49.266;7.104;2023-09-19T17:06:52;2.17;;;1.40;;
15183;SDS011;7693;49.266;7.104;2023-09-19T17:09:18;1.30;;;1.30;;
15183;SDS011;7693;49.266;7.104;2023-09-19T17:11:43;1.10;;;1.10;;
15183;SDS011;7693;49.266;7.104;2023-09-19T17:14:11;1.40;;;1.30;;
15183;SDS011;7693;49.266;7.104;2023-09-19T17:16:36;1.20;;;1.20;;
15183;SDS011;7693;49.266;7.104;2023-09-19T17:19:02;1.33;;;1.23;;
15183;SDS011;7693;49.266;7.104;2023-09-19T17:21:29;1.48;;;1.35;;
15183;SDS011;7693;49.266;7.104;2023-09-19T17:23:56;2.53;;;1.30;;
15183;SDS011;7693;49.266;7.104;2023-09-19T17:26:23;1.05;;;1.02;;
15183;SDS011;7693;49.266;7.104;2023-09-19T17:28:50;1.30;;;1.23;;
15183;SDS011;7693;49.266;7.104;2023-09-19T17:31:18;1.40;;;1.30;;
15183;SDS011;7693;49.266;7.104;2023-09-19T17:33:46;1.92;;;1.20;;
15183;SDS011;7693;49.266;7.104;2023-09-19T17:36:16;1.50;;;1.15;;
15183;SDS011;7693;49.266;7.104;2023-09-19T17:38:44;1.40;;;1.30;;
15183;SDS011;7693;49.266;7.104;2023-09-19T17:41:11;1.48;;;1.35;;
15183;SDS011;7693;49.266;7.104;2023-09-19T17:43:40;1.67;;;1.50;;
15183;SDS011;7693;49.266;7.104;2023-09-19T17:48:34;1.33;;;1.23;;
15183;SDS011;7693;49.266;7.104;2023-09-19T17:51:06;3.33;;;2.17;;
15183;SDS011;7693;49.266;7.104;2023-09-19T17:53:34;1.13;;;1.13;;
15183;SDS011;7693;49.266;7.104;2023-09-19T17:56:01;1.42;;;1.30;;
15183;SDS011;7693;49.266;7.104;2023-09-19T17:58:28;1.83;;;1.23;;
15183;SDS011;7693;49.266;7.104;2023-09-19T18:00:54;1.70;;;1.60;;
15183;SDS011;7693;49.266;7.104;2023-09-19T18:03:21;3.35;;;1.70;;
15183;SDS011;7693;49.266;7.104;2023-09-19T18:05:51;3.42;;;1.50;;
15183;SDS011;7693;49.266;7.104;2023-09-19T18:08:18;2.90;;;1.40;;
15183;SDS011;7693;49.266;7.104;2023-09-19T18:10:46;2.42;;;1.63;;
15183;SDS011;7693;49.266;7.104;2023-09-19T18:13:12;1.80;;;1.50;;
15183;SDS011;7693;49.266;7.104;2023-09-19T18:15:38;1.55;;;1.55;;
15183;SDS011;7693;49.266;7.104;2023-09-19T18:18:04;2.78;;;1.42;;
15183;SDS011;7693;49.266;7.104;2023-09-19T18:20:35;1.80;;;1.70;;
15183;SDS011;7693;49.266;7.104;2023-09-19T18:23:03;1.80;;;1.70;;
15183;SDS011;7693;49.266;7.104;2023-09-19T18:25:28;2.28;;;1.35;;
15183;SDS011;7693;49.266;7.104;2023-09-19T18:27:55;1.70;;;1.30;;
15183;SDS011;7693;49.266;7.104;2023-09-19T18:30:21;2.67;;;1.73;;
15183;SDS011;7693;49.266;7.104;2023-09-19T18:32:47;1.25;;;1.25;;
15183;SDS011;7693;49.266;7.104;2023-09-19T18:35:14;1.50;;;1.40;;
15183;SDS011;7693;49.266;7.104;2023-09-19T18:37:40;2.75;;;1.45;;
15183;SDS011;7693;49.266;7.104;2023-09-19T18:40:07;2.20;;;1.50;;
15183;SDS011;7693;49.266;7.104;2023-09-19T18:42:35;1.50;;;1.50;;
15183;SDS011;7693;49.266;7.104;2023-09-19T18:45:01;1.60;;;1.50;;
15183;SDS011;7693;49.266;7.104;2023-09-19T18:47:29;1.70;;;1.60;;
15183;SDS011;7693;49.266;7.104;2023-09-19T18:49:54;1.40;;;1.40;;
15183;SDS011;7693;49.266;7.104;2023-09-19T18:52:21;1.55;;;1.50;;
15183;SDS011;7693;49.266;7.104;2023-09-19T18:54:49;1.67;;;1.58;;
15183;SDS011;7693;49.266;7.104;2023-09-19T18:57:15;1.38;;;1.38;;
15183;SDS011;7693;49.266;7.104;2023-09-19T18:59:41;1.45;;;1.35;;
15183;SDS011;7693;49.266;7.104;2023-09-19T19:02:07;1.58;;;1.40;;
15183;SDS011;7693;49.266;7.104;2023-09-19T19:04:35;1.50;;;1.40;;
15183;SDS011;7693;49.266;7.104;2023-09-19T19:07:04;2.58;;;1.40;;
15183;SDS011;7693;49.266;7.104;2023-09-19T19:09:36;1.88;;;1.48;;
15183;SDS011;7693;49.266;7.104;2023-09-19T19:12:02;2.55;;;2.00;;
15183;SDS011;7693;49.266;7.104;2023-09-19T19:14:28;2.60;;;1.40;;
15183;SDS011;7693;49.266;7.104;2023-09-19T19:16:54;2.30;;;1.48;;
15183;SDS011;7693;49.266;7.104;2023-09-19T19:19:19;1.40;;;1.40;;
15183;SDS011;7693;49.266;7.104;2023-09-19T19:21:45;1.50;;;1.45;;
15183;SDS011;7693;49.266;7.104;2023-09-19T19:24:11;1.30;;;1.30;;
15183;SDS011;7693;49.266;7.104;2023-09-19T19:26:37;1.50;;;1.40;;
15183;SDS011;7693;49.266;7.104;2023-09-19T19:29:03;3.25;;;1.50;;
15183;SDS011;7693;49.266;7.104;2023-09-19T19:31:29;1.98;;;1.50;;
15183;SDS011;7693;49.266;7.104;2023-09-19T19:33:58;1.40;;;1.40;;
15183;SDS011;7693;49.266;7.104;2023-09-19T19:36:23;1.88;;;1.70;;
15183;SDS011;7693;49.266;7.104;2023-09-19T19:38:50;1.67;;;1.60;;
15183;SDS011;7693;49.266;7.104;2023-09-19T19:41:17;2.97;;;1.40;;
15183;SDS011;7693;49.266;7.104;2023-09-19T19:43:42;1.55;;;1.45;;
15183;SDS011;7693;49.266;7.104;2023-09-19T19:46:08;2.67;;;1.42;;
15183;SDS011;7693;49.266;7.104;2023-09-19T19:48:35;1.67;;;1.30;;
15183;SDS011;7693;49.266;7.104;2023-09-19T19:51:04;3.13;;;1.50;;
15183;SDS011;7693;49.266;7.104;2023-09-19T19:53:34;1.60;;;1.50;;
15183;SDS011;7693;49.266;7.104;2023-09-19T19:56:01;2.65;;;1.60;;
15183;SDS011;7693;49.266;7.104;2023-09-19T19:58:27;1.52;;;1.42;;
15183;SDS011;7693;49.266;7.104;2023-09-19T20:00:55;1.80;;;1.70;;
15183;SDS011;7693;49.266;7.104;2023-09-19T20:03:21;2.47;;;1.73;;
15183;SDS011;7693;49.266;7.104;2023-09-19T20:05:47;1.65;;;1.55;;
15183;SDS011;7693;49.266;7.104;2023-09-19T20:08:13;1.67;;;1.58;;
15183;SDS011;7693;49.266;7.104;2023-09-19T20:10:39;1.95;;;1.80;;
15183;SDS011;7693;49.266;7.104;2023-09-19T20:13:06;1.50;;;1.50;;
15183;SDS011;7693;49.266;7.104;2023-09-19T20:15:33;1.67;;;1.58;;
15183;SDS011;7693;49.266;7.104;2023-09-19T20:18:00;2.00;;;1.42;;
15183;SDS011;7693;49.266;7.104;2023-09-19T20:20:27;2.72;;;1.90;;
15183;SDS011;7693;49.266;7.104;2023-09-19T20:22:53;3.25;;;1.83;;
15183;SDS011;7693;49.266;7.104;2023-09-19T20:25:19;1.70;;;1.58;;
15183;SDS011;7693;49.266;7.104;2023-09-19T20:27:46;1.60;;;1.50;;
15183;SDS011;7693;49.266;7.104;2023-09-19T20:30:14;1.98;;;1.80;;
15183;SDS011;7693;49.266;7.104;2023-09-19T20:32:41;2.10;;;1.58;;
15183;SDS011;7693;49.266;7.104;2023-09-19T20:35:09;1.42;;;1.33;;
15183;SDS011;7693;49.266;7.104;2023-09-19T20:37:36;1.30;;;1.30;;
15183;SDS011;7693;49.266;7.104;2023-09-19T20:40:05;1.70;;;1.60;;
15183;SDS011;7693;49.266;7.104;2023-09-19T20:42:35;5.60;;;1.83;;
15183;SDS011;7693;49.266;7.104;2023-09-19T20:45:01;1.92;;;1.77;;
15183;SDS011;7693;49.266;7.104;2023-09-19T20:47:27;2.35;;;1.50;;
15183;SDS011;7693;49.266;7.104;2023-09-19T20:49:53;1.52;;;1.42;;
15183;SDS011;7693;49.266;7.104;2023-09-19T20:52:18;1.63;;;1.50;;
15183;SDS011;7693;49.266;7.104;2023-09-19T20:54:44;1.70;;;1.63;;
15183;SDS011;7693;49.266;7.104;2023-09-19T20:57:12;5.65;;;1.63;;
15183;SDS011;7693;49.266;7.104;2023-09-19T20:59:39;1.83;;;1.60;;
15183;SDS011;7693;49.266;7.104;2023-09-19T21:02:04;1.77;;;1.73;;
15183;SDS011;7693;49.266;7.104;2023-09-19T21:04:31;1.52;;;1.52;;
15183;SDS011;7693;49.266;7.104;2023-09-19T21:06:56;1.70;;;1.60;;
15183;SDS011;7693;49.266;7.104;2023-09-19T21:09:22;2.33;;;1.40;;
15183;SDS011;7693;49.266;7.104;2023-09-19T21:11:48;1.65;;;1.55;;
15183;SDS011;7693;49.266;7.104;2023-09-19T21:14:14;1.67;;;1.67;;
15183;SDS011;7693;49.266;7.104;2023-09-19T21:16:40;1.80;;;1.70;;
15183;SDS011;7693;49.266;7.104;2023-09-19T21:19:06;2.17;;;1.67;;
15183;SDS011;7693;49.266;7.104;2023-09-19T21:21:33;2.10;;;1.67;;
15183;SDS011;7693;49.266;7.104;2023-09-19T21:23:59;1.60;;;1.40;;
15183;SDS011;7693;49.266;7.104;2023-09-19T21:26:25;1.58;;;1.48;;
15183;SDS011;7693;49.266;7.104;2023-09-19T21:28:51;2.45;;;1.83;;
15183;SDS011;7693;49.266;7.104;2023-09-19T21:31:17;3.22;;;1.55;;
15183;SDS011;7693;49.266;7.104;2023-09-19T21:33:43;3.67;;;1.60;;
15183;SDS011;7693;49.266;7.104;2023-09-19T21:36:10;3.08;;;1.40;;
15183;SDS011;7693;49.266;7.104;2023-09-19T21:38:44;2.85;;;1.83;;
15183;SDS011;7693;49.266;7.104;2023-09-19T21:41:14;2.75;;;1.77;;
15183;SDS011;7693;49.266;7.104;2023-09-19T21:43:42;3.05;;;1.58;;
15183;SDS011;7693;49.266;7.104;2023-09-19T21:46:08;1.95;;;1.50;;
15183;SDS011;7693;49.266;7.104;2023-09-19T21:48:34;1.70;;;1.70;;
15183;SDS011;7693;49.266;7.104;2023-09-19T21:51:00;1.70;;;1.60;;
15183;SDS011;7693;49.266;7.104;2023-09-19T21:53:26;4.68;;;1.70;;
15183;SDS011;7693;49.266;7.104;2023-09-19T21:55:58;1.50;;;1.40;;
15183;SDS011;7693;49.266;7.104;2023-09-19T21:58:27;4.00;;;1.58;;
15183;SDS011;7693;49.266;7.104;2023-09-19T22:00:55;2.20;;;1.55;;
15183;SDS011;7693;49.266;7.104;2023-09-19T22:03:21;1.63;;;1.63;;
15183;SDS011;7693;49.266;7.104;2023-09-19T22:05:48;1.52;;;1.42;;
15183;SDS011;7693;49.266;7.104;2023-09-19T22:08:13;1.52;;;1.52;;
15183;SDS011;7693;49.266;7.104;2023-09-19T22:13:05;1.73;;;1.63;;
15183;SDS011;7693;49.266;7.104;2023-09-19T22:15:33;3.25;;;1.67;;
15183;SDS011;7693;49.266;7.104;2023-09-19T22:17:59;1.60;;;1.50;;
15183;SDS011;7693;49.266;7.104;2023-09-19T22:20:25;3.80;;;1.98;;
15183;SDS011;7693;49.266;7.104;2023-09-19T22:22:54;2.85;;;1.65;;
15183;SDS011;7693;49.266;7.104;2023-09-19T22:25:22;3.20;;;1.60;;
15183;SDS011;7693;49.266;7.104;2023-09-19T22:27:50;1.40;;;1.40;;
15183;SDS011;7693;49.266;7.104;2023-09-19T22:30:17;1.50;;;1.50;;
15183;SDS011;7693;49.266;7.104;2023-09-19T22:32:44;1.52;;;1.42;;
15183;SDS011;7693;49.266;7.104;2023-09-19T22:35:10;2.33;;;1.63;;
